sensor_id;sensor_type;location;lat;lon;timestamp;temperature;humidity
56725;DHT22;42608;52.776;6.968;2022-11-20T00:01:34;-1.40;99.90
56725;DHT22;42608;52.776;6.968;2022-11-20T00:04:01;-1.40;99.90
56725;DHT22;42608;52.776;6.968;2022-11-20T00:06:27;-1.30;99.90
56725;DHT22;42608;52.776;6.968;2022-11-20T00:08:54;-1.30;99.90
56725;DHT22;42608;52.776;6.968;2022-11-20T00:11:21;-1.40;99.90
56725;DHT22;42608;52.776;6.968;2022-11-20T00:13:48;-1.30;99.90
56725;DHT22;42608;52.776;6.968;2022-11-20T00:16:16;-1.30;99.90
56725;DHT22;42608;52.776;6.968;2022-11-20T00:18:44;-1.30;99.90
56725;DHT22;42608;52.776;6.968;2022-11-20T00:21:11;-1.30;99.90
56725;DHT22;42608;52.776;6.968;2022-11-20T00:23:39;-1.20;99.90
56725;DHT22;42608;52.776;6.968;2022-11-20T00:26:05;-1.20;99.90
56725;DHT22;42608;52.776;6.968;2022-11-20T00:28:33;-1.20;99.90
56725;DHT22;42608;52.776;6.968;2022-11-20T00:31:01;-1.20;99.90
56725;DHT22;42608;52.776;6.968;2022-11-20T00:33:29;-1.20;99.90
56725;DHT22;42608;52.776;6.968;2022-11-20T00:36:03;-1.20;99.90
56725;DHT22;42608;52.776;6.968;2022-11-20T00:38:30;-1.30;99.90
56725;DHT22;42608;52.776;6.968;2022-11-20T00:41:00;-1.30;99.90
56725;DHT22;42608;52.776;6.968;2022-11-20T00:43:26;-1.20;99.90
56725;DHT22;42608;52.776;6.968;2022-11-20T00:45:59;-1.20;99.90
56725;DHT22;42608;52.776;6.968;2022-11-20T00:48:26;-1.20;99.90
56725;DHT22;42608;52.776;6.968;2022-11-20T00:50:52;-1.20;99.90
56725;DHT22;42608;52.776;6.968;2022-11-20T00:53:19;-1.10;99.90
56725;DHT22;42608;52.776;6.968;2022-11-20T00:55:58;-1.10;99.90
56725;DHT22;42608;52.776;6.968;2022-11-20T00:58:28;-1.10;99.90
56725;DHT22;42608;52.776;6.968;2022-11-20T01:00:59;-1.00;99.90
56725;DHT22;42608;52.776;6.968;2022-11-20T01:03:25;-1.00;99.90
56725;DHT22;42608;52.776;6.968;2022-11-20T01:05:51;-1.00;99.90
56725;DHT22;42608;52.776;6.968;2022-11-20T01:08:17;-1.00;99.90
56725;DHT22;42608;52.776;6.968;2022-11-20T01:10:44;-1.00;99.90
56725;DHT22;42608;52.776;6.968;2022-11-20T01:13:09;-1.00;99.90
56725;DHT22;42608;52.776;6.968;2022-11-20T01:15:54;-1.00;99.90
56725;DHT22;42608;52.776;6.968;2022-11-20T01:18:20;-1.00;99.90
56725;DHT22;42608;52.776;6.968;2022-11-20T01:20:45;-1.00;99.90
56725;DHT22;42608;52.776;6.968;2022-11-20T01:23:12;-1.00;99.90
56725;DHT22;42608;52.776;6.968;2022-11-20T01:25:37;-0.90;99.90
56725;DHT22;42608;52.776;6.968;2022-11-20T01:28:04;-0.90;99.90
56725;DHT22;42608;52.776;6.968;2022-11-20T01:30:30;-0.90;99.90
56725;DHT22;42608;52.776;6.968;2022-11-20T01:32:56;-0.90;99.90
56725;DHT22;42608;52.776;6.968;2022-11-20T01:35:23;-0.80;99.90
56725;DHT22;42608;52.776;6.968;2022-11-20T01:37:49;-0.80;99.90
56725;DHT22;42608;52.776;6.968;2022-11-20T01:40:17;-0.80;99.90
56725;DHT22;42608;52.776;6.968;2022-11-20T01:42:52;-0.80;99.90
56725;DHT22;42608;52.776;6.968;2022-11-20T01:45:42;-0.70;99.90
56725;DHT22;42608;52.776;6.968;2022-11-20T01:48:16;-0.70;99.90
56725;DHT22;42608;52.776;6.968;2022-11-20T01:50:43;-0.70;99.90
56725;DHT22;42608;52.776;6.968;2022-11-20T01:53:12;-0.70;99.90
56725;DHT22;42608;52.776;6.968;2022-11-20T01:55:41;-0.70;99.90
56725;DHT22;42608;52.776;6.968;2022-11-20T01:58:06;-0.70;99.90
56725;DHT22;42608;52.776;6.968;2022-11-20T02:00:33;-0.70;99.90
56725;DHT22;42608;52.776;6.968;2022-11-20T02:03:01;-0.70;99.90
56725;DHT22;42608;52.776;6.968;2022-11-20T02:07:57;-0.60;99.90
56725;DHT22;42608;52.776;6.968;2022-11-20T02:10:23;-0.60;99.90
56725;DHT22;42608;52.776;6.968;2022-11-20T02:12:49;-0.60;99.90
56725;DHT22;42608;52.776;6.968;2022-11-20T02:15:35;-0.60;99.90
56725;DHT22;42608;52.776;6.968;2022-11-20T02:18:01;-0.60;99.90
56725;DHT22;42608;52.776;6.968;2022-11-20T02:20:28;-0.60;99.90
56725;DHT22;42608;52.776;6.968;2022-11-20T02:22:57;-0.70;99.90
56725;DHT22;42608;52.776;6.968;2022-11-20T02:25:24;-0.60;99.90
56725;DHT22;42608;52.776;6.968;2022-11-20T02:27:52;-0.60;99.90
56725;DHT22;42608;52.776;6.968;2022-11-20T02:30:18;-0.60;99.90
56725;DHT22;42608;52.776;6.968;2022-11-20T02:32:44;-0.50;99.90
56725;DHT22;42608;52.776;6.968;2022-11-20T02:37:50;-0.50;99.90
56725;DHT22;42608;52.776;6.968;2022-11-20T02:40:17;-0.50;99.90
56725;DHT22;42608;52.776;6.968;2022-11-20T02:42:44;-0.50;99.90
56725;DHT22;42608;52.776;6.968;2022-11-20T02:45:10;-0.50;99.90
56725;DHT22;42608;52.776;6.968;2022-11-20T02:47:36;-0.40;99.90
56725;DHT22;42608;52.776;6.968;2022-11-20T02:50:02;-0.40;99.90
56725;DHT22;42608;52.776;6.968;2022-11-20T02:52:29;-0.40;99.90
56725;DHT22;42608;52.776;6.968;2022-11-20T02:54:55;-0.40;99.90
56725;DHT22;42608;52.776;6.968;2022-11-20T02:57:21;-0.30;99.90
56725;DHT22;42608;52.776;6.968;2022-11-20T02:59:47;-0.30;99.90
56725;DHT22;42608;52.776;6.968;2022-11-20T03:02:13;-0.40;99.90
56725;DHT22;42608;52.776;6.968;2022-11-20T03:04:39;-0.30;99.90
56725;DHT22;42608;52.776;6.968;2022-11-20T03:07:05;-0.30;99.90
56725;DHT22;42608;52.776;6.968;2022-11-20T03:09:33;-0.30;99.90
56725;DHT22;42608;52.776;6.968;2022-11-20T03:11:58;-0.30;99.90
56725;DHT22;42608;52.776;6.968;2022-11-20T03:14:26;-0.30;99.90
56725;DHT22;42608;52.776;6.968;2022-11-20T03:16:52;-0.30;99.90
56725;DHT22;42608;52.776;6.968;2022-11-20T03:19:19;-0.30;99.90
56725;DHT22;42608;52.776;6.968;2022-11-20T03:21:46;-0.30;99.90
56725;DHT22;42608;52.776;6.968;2022-11-20T03:24:13;-0.30;99.90
56725;DHT22;42608;52.776;6.968;2022-11-20T03:26:39;-0.30;99.90
56725;DHT22;42608;52.776;6.968;2022-11-20T03:29:06;-0.20;99.90
56725;DHT22;42608;52.776;6.968;2022-11-20T03:31:34;-0.20;99.90
56725;DHT22;42608;52.776;6.968;2022-11-20T03:34:00;-0.20;99.90
56725;DHT22;42608;52.776;6.968;2022-11-20T03:36:27;-0.20;99.90
56725;DHT22;42608;52.776;6.968;2022-11-20T03:38:54;-0.20;99.90
56725;DHT22;42608;52.776;6.968;2022-11-20T03:41:21;-0.10;99.90
56725;DHT22;42608;52.776;6.968;2022-11-20T03:43:48;-0.10;99.90
56725;DHT22;42608;52.776;6.968;2022-11-20T03:46:15;-0.10;99.90
56725;DHT22;42608;52.776;6.968;2022-11-20T03:48:41;-0.10;99.90
56725;DHT22;42608;52.776;6.968;2022-11-20T03:53:37;-0.10;99.90
56725;DHT22;42608;52.776;6.968;2022-11-20T03:56:05;0.00;99.90
56725;DHT22;42608;52.776;6.968;2022-11-20T03:58:32;0.00;99.90
56725;DHT22;42608;52.776;6.968;2022-11-20T04:01:10;0.00;99.90
56725;DHT22;42608;52.776;6.968;2022-11-20T04:03:36;0.00;99.90
56725;DHT22;42608;52.776;6.968;2022-11-20T04:06:04;0.00;99.90
56725;DHT22;42608;52.776;6.968;2022-11-20T04:08:30;0.00;99.90
56725;DHT22;42608;52.776;6.968;2022-11-20T04:11:07;-0.10;99.90
56725;DHT22;42608;52.776;6.968;2022-11-20T04:13:33;-0.10;99.90
56725;DHT22;42608;52.776;6.968;2022-11-20T04:16:00;-0.10;99.90
56725;DHT22;42608;52.776;6.968;2022-11-20T04:18:25;0.00;99.90
56725;DHT22;42608;52.776;6.968;2022-11-20T04:20:51;0.00;99.90
56725;DHT22;42608;52.776;6.968;2022-11-20T04:23:17;0.00;99.90
56725;DHT22;42608;52.776;6.968;2022-11-20T04:25:43;0.00;99.90
56725;DHT22;42608;52.776;6.968;2022-11-20T04:28:10;0.00;99.90
56725;DHT22;42608;52.776;6.968;2022-11-20T04:30:36;0.00;99.90
56725;DHT22;42608;52.776;6.968;2022-11-20T04:33:03;0.00;99.90
56725;DHT22;42608;52.776;6.968;2022-11-20T04:35:29;0.00;99.90
56725;DHT22;42608;52.776;6.968;2022-11-20T04:37:55;0.10;99.90
56725;DHT22;42608;52.776;6.968;2022-11-20T04:40:21;0.10;99.90
56725;DHT22;42608;52.776;6.968;2022-11-20T04:42:47;0.00;99.90
56725;DHT22;42608;52.776;6.968;2022-11-20T04:45:14;0.10;99.90
56725;DHT22;42608;52.776;6.968;2022-11-20T04:47:41;0.10;99.90
56725;DHT22;42608;52.776;6.968;2022-11-20T04:50:08;0.10;99.90
56725;DHT22;42608;52.776;6.968;2022-11-20T04:52:34;0.10;99.90
56725;DHT22;42608;52.776;6.968;2022-11-20T04:55:01;0.20;99.90
56725;DHT22;42608;52.776;6.968;2022-11-20T04:57:27;0.20;99.90
56725;DHT22;42608;52.776;6.968;2022-11-20T04:59:53;0.20;99.90
56725;DHT22;42608;52.776;6.968;2022-11-20T05:02:19;0.20;99.90
56725;DHT22;42608;52.776;6.968;2022-11-20T05:04:49;0.20;99.90
56725;DHT22;42608;52.776;6.968;2022-11-20T05:07:15;0.10;99.90
56725;DHT22;42608;52.776;6.968;2022-11-20T05:09:41;0.10;99.90
56725;DHT22;42608;52.776;6.968;2022-11-20T05:12:07;0.10;99.90
56725;DHT22;42608;52.776;6.968;2022-11-20T05:14:34;0.10;99.90
56725;DHT22;42608;52.776;6.968;2022-11-20T05:17:00;0.10;99.90
56725;DHT22;42608;52.776;6.968;2022-11-20T05:19:27;0.10;99.90
56725;DHT22;42608;52.776;6.968;2022-11-20T05:21:52;0.00;99.90
56725;DHT22;42608;52.776;6.968;2022-11-20T05:24:19;0.00;99.90
56725;DHT22;42608;52.776;6.968;2022-11-20T05:26:45;0.10;99.90
56725;DHT22;42608;52.776;6.968;2022-11-20T05:29:12;0.10;99.90
56725;DHT22;42608;52.776;6.968;2022-11-20T05:31:40;0.10;99.90
56725;DHT22;42608;52.776;6.968;2022-11-20T05:34:07;0.10;99.90
56725;DHT22;42608;52.776;6.968;2022-11-20T05:36:34;0.10;99.90
56725;DHT22;42608;52.776;6.968;2022-11-20T05:39:01;0.10;99.90
56725;DHT22;42608;52.776;6.968;2022-11-20T05:41:27;0.10;99.90
56725;DHT22;42608;52.776;6.968;2022-11-20T05:43:53;0.10;99.90
56725;DHT22;42608;52.776;6.968;2022-11-20T05:46:20;0.20;99.90
56725;DHT22;42608;52.776;6.968;2022-11-20T05:48:46;0.20;99.90
56725;DHT22;42608;52.776;6.968;2022-11-20T05:51:14;0.20;99.90
56725;DHT22;42608;52.776;6.968;2022-11-20T05:53:41;0.20;99.90
56725;DHT22;42608;52.776;6.968;2022-11-20T05:56:09;0.20;99.90
56725;DHT22;42608;52.776;6.968;2022-11-20T05:58:35;0.30;99.90
56725;DHT22;42608;52.776;6.968;2022-11-20T06:01:10;0.30;99.90
56725;DHT22;42608;52.776;6.968;2022-11-20T06:03:37;0.30;99.90
56725;DHT22;42608;52.776;6.968;2022-11-20T06:06:03;0.30;99.90
56725;DHT22;42608;52.776;6.968;2022-11-20T06:08:31;0.30;99.90
56725;DHT22;42608;52.776;6.968;2022-11-20T06:10:58;0.30;99.90
56725;DHT22;42608;52.776;6.968;2022-11-20T06:13:24;0.30;99.90
56725;DHT22;42608;52.776;6.968;2022-11-20T06:15:51;0.30;99.90
56725;DHT22;42608;52.776;6.968;2022-11-20T06:18:18;0.30;99.90
56725;DHT22;42608;52.776;6.968;2022-11-20T06:20:44;0.30;99.90
56725;DHT22;42608;52.776;6.968;2022-11-20T06:23:12;0.30;99.90
56725;DHT22;42608;52.776;6.968;2022-11-20T06:25:41;0.30;99.90
56725;DHT22;42608;52.776;6.968;2022-11-20T06:28:08;0.30;99.90
56725;DHT22;42608;52.776;6.968;2022-11-20T06:30:36;0.30;99.90
56725;DHT22;42608;52.776;6.968;2022-11-20T06:33:02;0.30;99.90
56725;DHT22;42608;52.776;6.968;2022-11-20T06:35:28;0.30;99.90
56725;DHT22;42608;52.776;6.968;2022-11-20T06:37:55;0.20;99.90
56725;DHT22;42608;52.776;6.968;2022-11-20T06:40:22;0.30;99.90
56725;DHT22;42608;52.776;6.968;2022-11-20T06:42:48;0.30;99.90
56725;DHT22;42608;52.776;6.968;2022-11-20T06:45:15;0.20;99.90
56725;DHT22;42608;52.776;6.968;2022-11-20T06:47:41;0.20;99.90
56725;DHT22;42608;52.776;6.968;2022-11-20T06:50:08;0.20;99.90
56725;DHT22;42608;52.776;6.968;2022-11-20T06:52:34;0.10;99.90
56725;DHT22;42608;52.776;6.968;2022-11-20T06:55:01;0.10;99.90
56725;DHT22;42608;52.776;6.968;2022-11-20T06:57:28;0.10;99.90
56725;DHT22;42608;52.776;6.968;2022-11-20T06:59:54;0.10;99.90
56725;DHT22;42608;52.776;6.968;2022-11-20T07:02:22;0.10;99.90
56725;DHT22;42608;52.776;6.968;2022-11-20T07:04:49;0.10;99.90
56725;DHT22;42608;52.776;6.968;2022-11-20T07:07:14;0.10;99.90
56725;DHT22;42608;52.776;6.968;2022-11-20T07:09:42;0.20;99.90
56725;DHT22;42608;52.776;6.968;2022-11-20T07:12:08;0.20;99.90
56725;DHT22;42608;52.776;6.968;2022-11-20T07:14:33;0.20;99.90
56725;DHT22;42608;52.776;6.968;2022-11-20T07:17:00;0.20;99.90
56725;DHT22;42608;52.776;6.968;2022-11-20T07:19:26;0.20;99.90
56725;DHT22;42608;52.776;6.968;2022-11-20T07:21:52;0.20;99.90
56725;DHT22;42608;52.776;6.968;2022-11-20T07:24:18;0.30;99.90
56725;DHT22;42608;52.776;6.968;2022-11-20T07:26:45;0.20;99.90
56725;DHT22;42608;52.776;6.968;2022-11-20T07:29:13;0.30;99.90
56725;DHT22;42608;52.776;6.968;2022-11-20T07:31:39;0.30;99.90
56725;DHT22;42608;52.776;6.968;2022-11-20T07:34:05;0.30;99.90
56725;DHT22;42608;52.776;6.968;2022-11-20T07:36:31;0.30;99.90
56725;DHT22;42608;52.776;6.968;2022-11-20T07:38:57;0.30;99.90
56725;DHT22;42608;52.776;6.968;2022-11-20T07:41:23;0.20;99.90
56725;DHT22;42608;52.776;6.968;2022-11-20T07:43:50;0.20;99.90
56725;DHT22;42608;52.776;6.968;2022-11-20T07:46:15;0.20;99.90
56725;DHT22;42608;52.776;6.968;2022-11-20T07:48:42;0.30;99.90
56725;DHT22;42608;52.776;6.968;2022-11-20T07:51:07;0.30;99.90
56725;DHT22;42608;52.776;6.968;2022-11-20T07:53:34;0.30;99.90
56725;DHT22;42608;52.776;6.968;2022-11-20T07:56:00;0.30;99.90
56725;DHT22;42608;52.776;6.968;2022-11-20T07:58:27;0.40;99.90
56725;DHT22;42608;52.776;6.968;2022-11-20T08:00:54;0.40;99.90
56725;DHT22;42608;52.776;6.968;2022-11-20T08:03:20;0.40;99.90
56725;DHT22;42608;52.776;6.968;2022-11-20T08:05:46;0.40;99.90
56725;DHT22;42608;52.776;6.968;2022-11-20T08:08:13;0.40;99.90
56725;DHT22;42608;52.776;6.968;2022-11-20T08:10:40;0.40;99.90
56725;DHT22;42608;52.776;6.968;2022-11-20T08:13:05;0.40;99.90
56725;DHT22;42608;52.776;6.968;2022-11-20T08:15:50;0.30;99.90
56725;DHT22;42608;52.776;6.968;2022-11-20T08:18:17;0.30;99.90
56725;DHT22;42608;52.776;6.968;2022-11-20T08:20:44;0.30;99.90
56725;DHT22;42608;52.776;6.968;2022-11-20T08:23:11;0.30;99.90
56725;DHT22;42608;52.776;6.968;2022-11-20T08:25:38;0.30;99.90
56725;DHT22;42608;52.776;6.968;2022-11-20T08:28:05;0.20;99.90
56725;DHT22;42608;52.776;6.968;2022-11-20T08:30:31;0.20;99.90
56725;DHT22;42608;52.776;6.968;2022-11-20T08:33:02;0.20;99.90
56725;DHT22;42608;52.776;6.968;2022-11-20T08:35:33;0.20;99.90
56725;DHT22;42608;52.776;6.968;2022-11-20T08:38:01;0.30;99.90
56725;DHT22;42608;52.776;6.968;2022-11-20T08:40:28;0.20;99.90
56725;DHT22;42608;52.776;6.968;2022-11-20T08:42:54;0.20;99.90
56725;DHT22;42608;52.776;6.968;2022-11-20T08:45:20;0.30;99.90
56725;DHT22;42608;52.776;6.968;2022-11-20T08:47:46;0.30;99.90
56725;DHT22;42608;52.776;6.968;2022-11-20T08:50:13;0.30;99.90
56725;DHT22;42608;52.776;6.968;2022-11-20T08:52:39;0.40;99.90
56725;DHT22;42608;52.776;6.968;2022-11-20T08:55:05;0.40;99.90
56725;DHT22;42608;52.776;6.968;2022-11-20T08:57:32;0.40;99.90
56725;DHT22;42608;52.776;6.968;2022-11-20T08:59:59;0.40;99.90
56725;DHT22;42608;52.776;6.968;2022-11-20T09:02:25;0.40;99.90
56725;DHT22;42608;52.776;6.968;2022-11-20T09:04:52;0.50;99.90
56725;DHT22;42608;52.776;6.968;2022-11-20T09:07:19;0.50;99.90
56725;DHT22;42608;52.776;6.968;2022-11-20T09:09:46;0.50;99.90
56725;DHT22;42608;52.776;6.968;2022-11-20T09:12:12;0.50;99.90
56725;DHT22;42608;52.776;6.968;2022-11-20T09:14:38;0.50;99.90
56725;DHT22;42608;52.776;6.968;2022-11-20T09:17:05;0.50;99.90
56725;DHT22;42608;52.776;6.968;2022-11-20T09:19:33;0.50;99.90
56725;DHT22;42608;52.776;6.968;2022-11-20T09:21:59;0.50;99.90
56725;DHT22;42608;52.776;6.968;2022-11-20T09:24:25;0.60;99.90
56725;DHT22;42608;52.776;6.968;2022-11-20T09:26:52;0.50;99.90
56725;DHT22;42608;52.776;6.968;2022-11-20T09:29:18;0.50;99.90
56725;DHT22;42608;52.776;6.968;2022-11-20T09:31:46;0.60;99.90
56725;DHT22;42608;52.776;6.968;2022-11-20T09:34:12;0.60;99.90
56725;DHT22;42608;52.776;6.968;2022-11-20T09:36:38;0.60;99.90
56725;DHT22;42608;52.776;6.968;2022-11-20T09:39:05;0.60;99.90
56725;DHT22;42608;52.776;6.968;2022-11-20T09:44:31;0.60;99.90
56725;DHT22;42608;52.776;6.968;2022-11-20T09:47:11;0.60;99.90
56725;DHT22;42608;52.776;6.968;2022-11-20T09:52:39;0.70;99.90
56725;DHT22;42608;52.776;6.968;2022-11-20T09:55:10;0.70;99.90
56725;DHT22;42608;52.776;6.968;2022-11-20T09:57:38;0.70;99.90
56725;DHT22;42608;52.776;6.968;2022-11-20T10:00:06;0.70;99.90
56725;DHT22;42608;52.776;6.968;2022-11-20T10:02:43;0.70;99.90
56725;DHT22;42608;52.776;6.968;2022-11-20T10:05:15;0.80;99.90
56725;DHT22;42608;52.776;6.968;2022-11-20T10:10:33;0.80;99.90
56725;DHT22;42608;52.776;6.968;2022-11-20T10:13:12;0.80;99.90
56725;DHT22;42608;52.776;6.968;2022-11-20T10:16:00;0.90;99.90
56725;DHT22;42608;52.776;6.968;2022-11-20T10:19:06;0.90;99.90
56725;DHT22;42608;52.776;6.968;2022-11-20T10:21:34;1.00;99.90
56725;DHT22;42608;52.776;6.968;2022-11-20T10:29:21;1.10;99.90
56725;DHT22;42608;52.776;6.968;2022-11-20T10:31:57;1.10;99.90
56725;DHT22;42608;52.776;6.968;2022-11-20T10:34:29;1.10;99.90
56725;DHT22;42608;52.776;6.968;2022-11-20T10:36:59;1.10;99.90
56725;DHT22;42608;52.776;6.968;2022-11-20T10:39:39;1.10;99.90
56725;DHT22;42608;52.776;6.968;2022-11-20T10:42:16;1.20;99.90
56725;DHT22;42608;52.776;6.968;2022-11-20T10:44:45;1.30;99.90
56725;DHT22;42608;52.776;6.968;2022-11-20T10:47:30;1.30;99.90
56725;DHT22;42608;52.776;6.968;2022-11-20T10:49:58;1.40;99.90
56725;DHT22;42608;52.776;6.968;2022-11-20T10:59:56;1.50;99.90
56725;DHT22;42608;52.776;6.968;2022-11-20T11:08:05;1.60;99.90
56725;DHT22;42608;52.776;6.968;2022-11-20T11:13:03;1.70;99.90
56725;DHT22;42608;52.776;6.968;2022-11-20T11:15:40;1.80;99.90
56725;DHT22;42608;52.776;6.968;2022-11-20T11:18:08;1.90;99.90
56725;DHT22;42608;52.776;6.968;2022-11-20T11:20:34;1.90;99.90
56725;DHT22;42608;52.776;6.968;2022-11-20T11:23:02;1.90;99.90
56725;DHT22;42608;52.776;6.968;2022-11-20T11:25:31;1.90;99.90
56725;DHT22;42608;52.776;6.968;2022-11-20T11:28:02;1.90;99.90
56725;DHT22;42608;52.776;6.968;2022-11-20T11:30:30;2.00;99.90
56725;DHT22;42608;52.776;6.968;2022-11-20T11:33:08;2.00;99.90
56725;DHT22;42608;52.776;6.968;2022-11-20T11:35:39;2.00;99.90
56725;DHT22;42608;52.776;6.968;2022-11-20T11:38:12;2.00;99.90
56725;DHT22;42608;52.776;6.968;2022-11-20T11:40:40;2.00;99.90
56725;DHT22;42608;52.776;6.968;2022-11-20T11:43:15;2.00;99.90
56725;DHT22;42608;52.776;6.968;2022-11-20T11:46:02;2.10;99.90
56725;DHT22;42608;52.776;6.968;2022-11-20T11:48:30;2.10;99.90
56725;DHT22;42608;52.776;6.968;2022-11-20T11:50:57;2.10;99.90
56725;DHT22;42608;52.776;6.968;2022-11-20T11:53:23;2.10;99.90
56725;DHT22;42608;52.776;6.968;2022-11-20T11:58:45;2.10;99.90
56725;DHT22;42608;52.776;6.968;2022-11-20T12:01:31;2.10;99.90
56725;DHT22;42608;52.776;6.968;2022-11-20T12:06:31;2.10;99.90
56725;DHT22;42608;52.776;6.968;2022-11-20T12:09:03;2.10;99.90
56725;DHT22;42608;52.776;6.968;2022-11-20T12:11:38;2.10;99.90
56725;DHT22;42608;52.776;6.968;2022-11-20T12:14:18;2.20;99.90
56725;DHT22;42608;52.776;6.968;2022-11-20T12:16:49;2.20;99.90
56725;DHT22;42608;52.776;6.968;2022-11-20T12:19:17;2.20;99.90
56725;DHT22;42608;52.776;6.968;2022-11-20T12:40:19;2.70;99.90
56725;DHT22;42608;52.776;6.968;2022-11-20T12:48:19;2.90;99.90
56725;DHT22;42608;52.776;6.968;2022-11-20T12:51:06;2.90;99.90
56725;DHT22;42608;52.776;6.968;2022-11-20T12:56:20;2.90;99.90
56725;DHT22;42608;52.776;6.968;2022-11-20T13:01:37;2.80;99.90
56725;DHT22;42608;52.776;6.968;2022-11-20T13:06:51;2.80;99.90
56725;DHT22;42608;52.776;6.968;2022-11-20T13:09:18;2.80;99.90
56725;DHT22;42608;52.776;6.968;2022-11-20T13:12:07;2.90;99.90
56725;DHT22;42608;52.776;6.968;2022-11-20T13:19:38;2.90;99.90
56725;DHT22;42608;52.776;6.968;2022-11-20T13:22:05;2.90;99.90
56725;DHT22;42608;52.776;6.968;2022-11-20T13:24:31;2.90;99.90
56725;DHT22;42608;52.776;6.968;2022-11-20T13:29:34;2.80;99.90
56725;DHT22;42608;52.776;6.968;2022-11-20T13:32:13;2.80;99.90
56725;DHT22;42608;52.776;6.968;2022-11-20T13:37:36;2.80;99.90
56725;DHT22;42608;52.776;6.968;2022-11-20T13:40:21;2.80;99.90
56725;DHT22;42608;52.776;6.968;2022-11-20T13:42:54;2.80;99.90
56725;DHT22;42608;52.776;6.968;2022-11-20T13:45:23;2.80;99.90
56725;DHT22;42608;52.776;6.968;2022-11-20T13:47:50;2.70;99.90
56725;DHT22;42608;52.776;6.968;2022-11-20T13:50:17;2.70;99.90
56725;DHT22;42608;52.776;6.968;2022-11-20T13:57:52;2.80;99.90
56725;DHT22;42608;52.776;6.968;2022-11-20T14:00:22;2.80;99.90
56725;DHT22;42608;52.776;6.968;2022-11-20T14:03:02;2.70;99.90
56725;DHT22;42608;52.776;6.968;2022-11-20T14:05:37;2.70;99.90
56725;DHT22;42608;52.776;6.968;2022-11-20T14:08:06;2.70;99.90
56725;DHT22;42608;52.776;6.968;2022-11-20T14:10:33;2.70;99.90
56725;DHT22;42608;52.776;6.968;2022-11-20T14:13:09;2.70;99.90
56725;DHT22;42608;52.776;6.968;2022-11-20T14:15:35;2.60;99.90
56725;DHT22;42608;52.776;6.968;2022-11-20T14:18:15;2.60;99.90
56725;DHT22;42608;52.776;6.968;2022-11-20T14:20:41;2.60;99.90
56725;DHT22;42608;52.776;6.968;2022-11-20T14:23:10;2.60;99.90
56725;DHT22;42608;52.776;6.968;2022-11-20T14:25:36;2.50;99.90
56725;DHT22;42608;52.776;6.968;2022-11-20T14:28:03;2.50;99.90
56725;DHT22;42608;52.776;6.968;2022-11-20T14:30:42;2.40;99.90
56725;DHT22;42608;52.776;6.968;2022-11-20T14:33:10;2.40;99.90
56725;DHT22;42608;52.776;6.968;2022-11-20T14:35:45;2.30;99.90
56725;DHT22;42608;52.776;6.968;2022-11-20T14:38:13;2.30;99.90
56725;DHT22;42608;52.776;6.968;2022-11-20T14:40:40;2.30;99.90
56725;DHT22;42608;52.776;6.968;2022-11-20T14:43:27;2.30;99.90
56725;DHT22;42608;52.776;6.968;2022-11-20T14:46:00;2.30;99.90
56725;DHT22;42608;52.776;6.968;2022-11-20T14:48:50;2.30;99.90
56725;DHT22;42608;52.776;6.968;2022-11-20T14:51:37;2.30;99.90
56725;DHT22;42608;52.776;6.968;2022-11-20T14:54:11;2.30;99.90
56725;DHT22;42608;52.776;6.968;2022-11-20T14:56:37;2.30;99.90
56725;DHT22;42608;52.776;6.968;2022-11-20T14:59:05;2.20;99.90
56725;DHT22;42608;52.776;6.968;2022-11-20T15:01:32;2.20;99.90
56725;DHT22;42608;52.776;6.968;2022-11-20T15:03:59;2.20;99.90
56725;DHT22;42608;52.776;6.968;2022-11-20T15:06:26;2.20;99.90
56725;DHT22;42608;52.776;6.968;2022-11-20T15:08:52;2.20;99.90
56725;DHT22;42608;52.776;6.968;2022-11-20T15:11:19;2.20;99.90
56725;DHT22;42608;52.776;6.968;2022-11-20T15:13:46;2.10;99.90
56725;DHT22;42608;52.776;6.968;2022-11-20T15:16:15;2.10;99.90
56725;DHT22;42608;52.776;6.968;2022-11-20T15:18:43;2.10;99.90
56725;DHT22;42608;52.776;6.968;2022-11-20T15:21:11;2.10;99.90
56725;DHT22;42608;52.776;6.968;2022-11-20T15:23:38;2.10;99.90
56725;DHT22;42608;52.776;6.968;2022-11-20T15:26:05;2.10;99.90
56725;DHT22;42608;52.776;6.968;2022-11-20T15:28:33;2.00;99.90
56725;DHT22;42608;52.776;6.968;2022-11-20T15:31:00;2.00;99.90
56725;DHT22;42608;52.776;6.968;2022-11-20T15:33:29;2.00;99.90
56725;DHT22;42608;52.776;6.968;2022-11-20T15:35:56;2.00;99.90
56725;DHT22;42608;52.776;6.968;2022-11-20T15:38:23;2.00;99.90
56725;DHT22;42608;52.776;6.968;2022-11-20T15:40:49;2.00;99.90
56725;DHT22;42608;52.776;6.968;2022-11-20T15:43:16;2.00;99.90
56725;DHT22;42608;52.776;6.968;2022-11-20T15:45:43;1.90;99.90
56725;DHT22;42608;52.776;6.968;2022-11-20T15:48:12;1.90;99.90
56725;DHT22;42608;52.776;6.968;2022-11-20T15:53:28;1.80;99.90
56725;DHT22;42608;52.776;6.968;2022-11-20T15:55:55;1.80;99.90
56725;DHT22;42608;52.776;6.968;2022-11-20T15:58:22;1.80;99.90
56725;DHT22;42608;52.776;6.968;2022-11-20T16:00:49;1.80;99.90
56725;DHT22;42608;52.776;6.968;2022-11-20T16:03:16;1.70;99.90
56725;DHT22;42608;52.776;6.968;2022-11-20T16:05:42;1.70;99.90
56725;DHT22;42608;52.776;6.968;2022-11-20T16:08:08;1.70;99.90
56725;DHT22;42608;52.776;6.968;2022-11-20T16:10:36;1.60;99.90
56725;DHT22;42608;52.776;6.968;2022-11-20T16:13:02;1.60;99.90
56725;DHT22;42608;52.776;6.968;2022-11-20T16:15:55;1.50;99.90
56725;DHT22;42608;52.776;6.968;2022-11-20T16:18:22;1.50;99.90
56725;DHT22;42608;52.776;6.968;2022-11-20T16:20:51;1.50;99.90
56725;DHT22;42608;52.776;6.968;2022-11-20T16:23:18;1.50;99.90
56725;DHT22;42608;52.776;6.968;2022-11-20T16:25:44;1.50;99.90
56725;DHT22;42608;52.776;6.968;2022-11-20T16:28:11;1.50;99.90
56725;DHT22;42608;52.776;6.968;2022-11-20T16:30:37;1.40;99.90
56725;DHT22;42608;52.776;6.968;2022-11-20T16:33:04;1.40;99.90
56725;DHT22;42608;52.776;6.968;2022-11-20T16:35:34;1.40;99.90
56725;DHT22;42608;52.776;6.968;2022-11-20T16:38:00;1.40;99.90
56725;DHT22;42608;52.776;6.968;2022-11-20T16:40:26;1.40;99.90
56725;DHT22;42608;52.776;6.968;2022-11-20T16:42:53;1.40;99.90
56725;DHT22;42608;52.776;6.968;2022-11-20T16:45:20;1.40;99.90
56725;DHT22;42608;52.776;6.968;2022-11-20T16:47:46;1.40;99.90
56725;DHT22;42608;52.776;6.968;2022-11-20T16:50:14;1.40;99.90
56725;DHT22;42608;52.776;6.968;2022-11-20T16:52:40;1.40;99.90
56725;DHT22;42608;52.776;6.968;2022-11-20T16:55:07;1.40;99.90
56725;DHT22;42608;52.776;6.968;2022-11-20T16:57:34;1.40;99.90
56725;DHT22;42608;52.776;6.968;2022-11-20T17:00:01;1.40;99.90
56725;DHT22;42608;52.776;6.968;2022-11-20T17:02:27;1.40;99.90
56725;DHT22;42608;52.776;6.968;2022-11-20T17:04:53;1.40;99.90
56725;DHT22;42608;52.776;6.968;2022-11-20T17:07:20;1.40;99.90
56725;DHT22;42608;52.776;6.968;2022-11-20T17:09:47;1.40;99.90
56725;DHT22;42608;52.776;6.968;2022-11-20T17:12:13;1.40;99.90
56725;DHT22;42608;52.776;6.968;2022-11-20T17:14:39;1.50;99.90
56725;DHT22;42608;52.776;6.968;2022-11-20T17:17:06;1.50;99.90
56725;DHT22;42608;52.776;6.968;2022-11-20T17:19:32;1.50;99.90
56725;DHT22;42608;52.776;6.968;2022-11-20T17:21:59;1.50;99.90
56725;DHT22;42608;52.776;6.968;2022-11-20T17:24:25;1.50;99.90